createdAt,value
2017-09-27T00:01:31.909Z,87.00
2017-09-27T00:04:00.954Z,84.80
2017-09-27T00:06:29.197Z,84.80
2017-09-27T00:08:57.449Z,84.00
2017-09-27T00:11:26.497Z,85.20
2017-09-27T00:13:54.758Z,85.00
2017-09-27T00:16:23.009Z,84.60
2017-09-27T00:18:52.245Z,84.30
2017-09-27T00:21:20.489Z,84.40
2017-09-27T00:23:49.506Z,85.00
2017-09-27T00:26:17.789Z,85.00
2017-09-27T00:28:46.038Z,86.10
2017-09-27T00:31:14.290Z,85.40
2017-09-27T00:33:42.562Z,85.20
2017-09-27T00:36:11.173Z,84.80
2017-09-27T00:38:40.194Z,87.70
2017-09-27T00:41:08.749Z,87.60
2017-09-27T00:43:37.765Z,86.50
2017-09-27T00:46:06.016Z,86.50
2017-09-27T00:48:35.246Z,87.60
2017-09-27T00:51:03.497Z,87.50
2017-09-27T00:53:32.509Z,85.60
2017-09-27T00:56:00.786Z,85.70
2017-09-27T00:58:29.034Z,85.90
2017-09-27T01:00:58.050Z,87.10
2017-09-27T01:03:26.590Z,87.10
2017-09-27T01:05:54.842Z,86.50
2017-09-27T01:08:23.094Z,87.20
2017-09-27T01:10:51.370Z,86.80
2017-09-27T01:13:19.617Z,85.80
2017-09-27T01:15:48.647Z,86.20
2017-09-27T01:18:16.917Z,86.20
2017-09-27T01:20:45.194Z,88.20
2017-09-27T01:23:13.449Z,88.30
2017-09-27T01:25:42.796Z,86.80
2017-09-27T01:28:11.052Z,86.80
2017-09-27T01:30:39.298Z,86.50
2017-09-27T01:33:07.577Z,90.30
2017-09-27T01:35:36.601Z,89.80
2017-09-27T01:38:05.021Z,89.80
2017-09-27T01:40:33.294Z,90.00
2017-09-27T01:43:01.549Z,90.10
2017-09-27T01:45:29.802Z,87.90
2017-09-27T01:47:58.478Z,90.30
2017-09-27T01:50:26.725Z,90.40
2017-09-27T01:52:54.976Z,90.30
2017-09-27T01:55:23.262Z,88.10
2017-09-27T01:57:51.509Z,92.20
2017-09-27T02:00:19.758Z,90.80
2017-09-27T02:02:48.118Z,89.50
2017-09-27T02:05:17.138Z,90.20
2017-09-27T02:07:45.394Z,90.10
2017-09-27T02:10:13.930Z,90.40
2017-09-27T02:12:44.382Z,93.10
2017-09-27T02:15:12.628Z,94.40
2017-09-27T02:17:40.905Z,91.50
2017-09-27T02:20:09.166Z,91.00
2017-09-27T02:22:37.415Z,90.70
2017-09-27T02:25:06.454Z,90.20
2017-09-27T02:27:34.710Z,90.20
2017-09-27T02:30:02.958Z,90.50
2017-09-27T02:32:32.074Z,90.00
2017-09-27T02:35:00.332Z,90.00
2017-09-27T02:37:28.777Z,89.70
2017-09-27T02:39:57.289Z,90.50
2017-09-27T02:42:26.310Z,90.50
2017-09-27T02:44:54.568Z,90.50
2017-09-27T02:47:23.616Z,90.40
2017-09-27T02:49:51.863Z,90.40
2017-09-27T02:52:20.107Z,90.20
2017-09-27T02:54:48.452Z,90.40
2017-09-27T02:57:16.705Z,90.70
2017-09-27T02:59:44.950Z,91.40
2017-09-27T03:02:13.226Z,90.10
2017-09-27T03:04:41.476Z,91.10
2017-09-27T03:07:09.733Z,90.50
2017-09-27T03:09:38.005Z,93.00
2017-09-27T03:12:06.250Z,92.00
2017-09-27T03:14:34.506Z,91.30
2017-09-27T03:17:03.849Z,91.30
2017-09-27T03:19:32.106Z,91.20
2017-09-27T03:22:00.360Z,91.20
2017-09-27T03:24:29.396Z,91.30
2017-09-27T03:26:57.650Z,91.30
2017-09-27T03:29:25.898Z,91.50
2017-09-27T03:31:54.942Z,92.10
2017-09-27T03:34:23.194Z,92.00
2017-09-27T03:36:51.447Z,90.50
2017-09-27T03:39:20.793Z,91.60
2017-09-27T03:41:49.443Z,91.60
2017-09-27T03:44:18.457Z,91.60
2017-09-27T03:46:46.739Z,91.60
2017-09-27T03:49:14.989Z,91.70
2017-09-27T03:51:44.054Z,92.10
2017-09-27T03:54:12.330Z,92.10
2017-09-27T03:56:40.582Z,91.00
2017-09-27T03:59:08.838Z,92.20
2017-09-27T04:01:37.250Z,90.90
2017-09-27T04:04:05.493Z,91.00
2017-09-27T04:06:33.742Z,91.70
2017-09-27T04:09:02.778Z,92.00
2017-09-27T04:11:31.033Z,91.90
2017-09-27T04:13:59.294Z,91.90
2017-09-27T04:16:28.631Z,92.40
2017-09-27T04:18:56.895Z,92.40
2017-09-27T04:21:25.145Z,92.30
2017-09-27T04:23:54.250Z,92.00
2017-09-27T04:26:22.510Z,92.00
2017-09-27T04:28:51.529Z,92.10
2017-09-27T04:31:19.806Z,92.10
2017-09-27T04:33:48.053Z,91.80
2017-09-27T04:36:16.309Z,92.00
2017-09-27T04:38:44.592Z,92.10
2017-09-27T04:41:12.852Z,92.00
2017-09-27T04:43:41.686Z,93.10
2017-09-27T04:46:10.519Z,93.30
2017-09-27T04:48:38.783Z,93.00
2017-09-27T04:51:07.045Z,92.40
2017-09-27T04:53:35.316Z,93.10
2017-09-27T04:56:03.566Z,92.50
2017-09-27T04:58:31.858Z,93.60
2017-09-27T05:01:00.087Z,92.00
2017-09-27T05:03:28.333Z,92.70
2017-09-27T05:05:56.610Z,92.80
2017-09-27T05:08:25.215Z,93.30
2017-09-27T05:10:53.467Z,93.10
2017-09-27T05:13:21.718Z,92.60
2017-09-27T05:15:49.985Z,92.30
2017-09-27T05:18:19.015Z,93.50
2017-09-27T05:20:47.415Z,93.50
2017-09-27T05:23:15.677Z,93.60
2017-09-27T05:25:44.293Z,92.80
2017-09-27T05:28:12.528Z,92.80
2017-09-27T05:30:40.885Z,93.20
2017-09-27T05:33:09.133Z,93.60
2017-09-27T05:35:37.381Z,93.50
2017-09-27T05:38:05.673Z,94.00
2017-09-27T05:40:33.998Z,94.20
2017-09-27T05:43:03.051Z,93.10
2017-09-27T05:45:31.791Z,93.10
2017-09-27T05:48:00.049Z,93.90
2017-09-27T05:50:29.078Z,94.30
2017-09-27T05:52:57.415Z,94.30
2017-09-27T05:55:25.661Z,93.60
2017-09-27T05:57:53.910Z,93.70
2017-09-27T06:00:22.182Z,93.10
2017-09-27T06:02:50.425Z,93.10
2017-09-27T06:05:19.450Z,93.30
2017-09-27T06:07:47.742Z,93.20
2017-09-27T06:10:16.049Z,93.00
2017-09-27T06:12:44.298Z,92.50
2017-09-27T06:15:12.981Z,93.30
2017-09-27T06:17:41.241Z,92.80
2017-09-27T06:20:09.485Z,92.30
2017-09-27T06:22:37.766Z,92.90
2017-09-27T06:25:06.781Z,92.80
2017-09-27T06:27:35.038Z,92.70
2017-09-27T06:30:04.091Z,91.80
2017-09-27T06:32:32.347Z,91.80
2017-09-27T06:35:00.626Z,92.10
2017-09-27T06:37:29.132Z,92.00
2017-09-27T06:39:57.374Z,92.70
2017-09-27T06:42:25.631Z,91.70
2017-09-27T06:44:54.721Z,92.80
2017-09-27T06:47:24.085Z,92.60
2017-09-27T06:49:52.363Z,92.70
2017-09-27T06:52:20.652Z,92.20
2017-09-27T06:54:49.020Z,92.20
2017-09-27T06:57:17.306Z,92.80
2017-09-27T06:59:45.653Z,92.70
2017-09-27T07:02:13.909Z,92.40
2017-09-27T07:04:42.157Z,92.20
2017-09-27T07:07:11.232Z,92.90
2017-09-27T07:09:39.603Z,92.90
2017-09-27T07:12:07.833Z,92.70
2017-09-27T07:14:36.141Z,92.30
2017-09-27T07:17:04.402Z,92.60
2017-09-27T07:19:32.655Z,92.60
2017-09-27T07:22:01.388Z,92.90
2017-09-27T07:24:29.699Z,92.50
2017-09-27T07:26:57.925Z,92.60
2017-09-27T07:29:26.196Z,92.70
2017-09-27T07:31:54.460Z,92.50
2017-09-27T07:34:22.727Z,92.20
2017-09-27T07:36:51.155Z,92.40
2017-09-27T07:39:19.398Z,92.40
2017-09-27T07:41:47.641Z,92.00
2017-09-27T07:44:16.187Z,91.90
2017-09-27T07:46:44.433Z,91.60
2017-09-27T07:49:13.026Z,90.80
2017-09-27T07:51:41.309Z,90.60
2017-09-27T07:54:09.598Z,89.90
2017-09-27T07:56:37.834Z,89.50
2017-09-27T07:59:06.265Z,88.40
2017-09-27T08:01:34.494Z,86.40
2017-09-27T08:04:02.778Z,85.50
2017-09-27T08:06:31.651Z,84.40
2017-09-27T08:09:00.661Z,84.80
2017-09-27T08:11:28.949Z,84.70
2017-09-27T08:13:57.233Z,84.80
2017-09-27T08:16:25.486Z,86.40
2017-09-27T08:18:53.804Z,84.90
2017-09-27T08:21:22.087Z,81.60
2017-09-27T08:23:50.616Z,83.30
2017-09-27T08:26:19.048Z,84.00
2017-09-27T08:28:47.737Z,83.20
2017-09-27T08:31:15.967Z,81.90
2017-09-27T08:33:44.230Z,81.50
2017-09-27T08:36:12.533Z,80.20
2017-09-27T08:38:40.782Z,78.90
2017-09-27T08:41:09.937Z,79.70
2017-09-27T08:43:38.202Z,79.50
2017-09-27T08:46:06.495Z,78.10
2017-09-27T08:48:34.770Z,76.30
2017-09-27T08:51:03.802Z,75.70
2017-09-27T08:53:32.058Z,75.00
2017-09-27T08:56:00.340Z,76.40
2017-09-27T08:58:28.681Z,76.80
2017-09-27T09:00:56.934Z,75.20
2017-09-27T09:03:25.189Z,74.10
2017-09-27T09:05:53.545Z,75.10
2017-09-27T09:08:21.801Z,73.00
2017-09-27T09:10:50.046Z,72.70
2017-09-27T09:13:18.762Z,74.00
2017-09-27T09:15:47.782Z,73.50
2017-09-27T09:18:16.182Z,73.50
2017-09-27T09:20:44.482Z,70.90
2017-09-27T09:23:12.731Z,73.70
2017-09-27T09:25:41.765Z,68.20
2017-09-27T09:28:10.142Z,68.30
2017-09-27T09:30:38.411Z,67.70
2017-09-27T09:33:06.657Z,68.30
2017-09-27T09:35:35.801Z,68.70
2017-09-27T09:38:04.054Z,68.70
2017-09-27T09:40:32.380Z,66.60
2017-09-27T09:43:00.793Z,67.70
2017-09-27T09:45:29.841Z,68.40
2017-09-27T09:47:58.086Z,68.40
2017-09-27T09:50:26.374Z,68.90
2017-09-27T09:52:55.185Z,67.80
2017-09-27T09:55:23.431Z,68.20
2017-09-27T09:57:51.827Z,67.30
2017-09-27T10:00:20.135Z,66.80
2017-09-27T10:02:48.390Z,67.80
2017-09-27T10:05:16.771Z,66.20
2017-09-27T10:07:45.024Z,65.20
2017-09-27T10:10:13.310Z,64.90
2017-09-27T10:12:41.627Z,60.00
2017-09-27T10:15:09.882Z,63.50
2017-09-27T10:17:38.258Z,63.20
2017-09-27T10:20:06.842Z,59.40
2017-09-27T10:22:35.098Z,55.50
2017-09-27T10:25:03.373Z,52.50
2017-09-27T10:27:31.674Z,56.40
2017-09-27T10:29:59.914Z,53.50
2017-09-27T10:32:28.153Z,52.50
2017-09-27T10:34:56.551Z,54.40
2017-09-27T10:37:26.958Z,52.90
2017-09-27T10:39:55.222Z,51.60
2017-09-27T10:42:23.899Z,53.30
2017-09-27T10:44:52.138Z,51.50
2017-09-27T10:47:20.387Z,50.50
2017-09-27T10:49:48.677Z,48.20
2017-09-27T10:52:17.682Z,48.90
2017-09-27T10:54:46.146Z,48.70
2017-09-27T10:57:14.457Z,46.30
2017-09-27T10:59:42.714Z,47.90
2017-09-27T11:02:10.970Z,48.50
2017-09-27T11:04:39.820Z,48.50
2017-09-27T11:07:08.075Z,45.50
2017-09-27T11:09:36.340Z,44.90
2017-09-27T11:12:04.692Z,44.20
2017-09-27T11:14:32.926Z,45.60
2017-09-27T11:17:01.180Z,45.70
2017-09-27T11:19:29.454Z,46.90
2017-09-27T11:21:57.762Z,46.90
2017-09-27T11:24:26.034Z,47.80
2017-09-27T11:26:54.593Z,46.80
2017-09-27T11:29:22.838Z,46.10
2017-09-27T11:31:51.114Z,44.80
2017-09-27T11:34:19.383Z,46.10
2017-09-27T11:36:48.397Z,45.90
2017-09-27T11:39:16.665Z,45.80
2017-09-27T11:41:44.986Z,44.70
2017-09-27T11:44:14.005Z,43.20
2017-09-27T11:46:42.277Z,43.20
2017-09-27T11:49:10.701Z,41.70
2017-09-27T11:51:39.125Z,42.70
2017-09-27T11:54:07.387Z,43.10
2017-09-27T11:56:36.064Z,42.00
2017-09-27T11:59:04.378Z,43.80
2017-09-27T12:01:32.734Z,42.30
2017-09-27T12:04:01.006Z,43.10
2017-09-27T12:06:30.194Z,42.30
2017-09-27T12:08:58.442Z,43.10
2017-09-27T12:11:26.877Z,44.40
2017-09-27T12:13:55.128Z,45.80
2017-09-27T12:16:23.371Z,45.70
2017-09-27T12:18:52.466Z,41.20
2017-09-27T12:21:20.720Z,41.10
2017-09-27T12:23:48.966Z,38.60
2017-09-27T12:26:17.239Z,40.00
2017-09-27T12:28:45.498Z,39.30
2017-09-27T12:31:13.750Z,38.80
2017-09-27T12:33:42.969Z,38.50
2017-09-27T12:36:11.214Z,38.50
2017-09-27T12:38:39.561Z,38.10
2017-09-27T12:41:07.830Z,37.50
2017-09-27T12:43:36.081Z,38.40
2017-09-27T12:46:04.507Z,38.80
2017-09-27T12:48:32.789Z,39.70
2017-09-27T12:51:01.040Z,37.90
2017-09-27T12:53:29.277Z,33.90
2017-09-27T12:55:57.634Z,33.90
2017-09-27T12:58:26.153Z,37.80
2017-09-27T13:00:54.403Z,37.60
2017-09-27T13:03:22.681Z,36.60
2017-09-27T13:05:50.934Z,37.10
2017-09-27T13:08:19.185Z,35.00
2017-09-27T13:10:47.461Z,34.80
2017-09-27T13:13:15.706Z,35.80
2017-09-27T13:15:43.958Z,33.70
2017-09-27T13:18:13.507Z,36.60
2017-09-27T13:20:41.765Z,36.50
2017-09-27T13:23:10.022Z,35.10
2017-09-27T13:25:38.302Z,36.10
2017-09-27T13:28:06.568Z,37.30
2017-09-27T13:30:34.817Z,35.70
2017-09-27T13:33:03.102Z,35.00
2017-09-27T13:35:31.356Z,34.50
2017-09-27T13:37:59.598Z,34.30
2017-09-27T13:40:28.196Z,31.70
2017-09-27T13:42:57.221Z,29.10
2017-09-27T13:45:25.518Z,29.00
2017-09-27T13:47:53.801Z,33.00
2017-09-27T13:50:22.823Z,32.40
2017-09-27T13:52:51.070Z,32.20
2017-09-27T13:55:20.112Z,33.50
2017-09-27T13:57:48.368Z,33.50
2017-09-27T14:00:17.698Z,33.60
2017-09-27T14:02:46.478Z,32.30
2017-09-27T14:05:14.731Z,31.10
2017-09-27T14:07:43.009Z,30.40
2017-09-27T14:10:11.274Z,30.70
2017-09-27T14:12:39.524Z,31.70
2017-09-27T14:15:07.769Z,31.90
2017-09-27T14:17:36.042Z,31.10
2017-09-27T14:20:04.299Z,29.30
2017-09-27T14:22:32.554Z,31.30
2017-09-27T14:25:01.983Z,30.50
2017-09-27T14:27:30.229Z,30.40
2017-09-27T14:29:59.295Z,30.10
2017-09-27T14:32:27.575Z,30.10
2017-09-27T14:34:55.825Z,28.60
2017-09-27T14:37:24.077Z,30.40
2017-09-27T14:39:52.353Z,29.80
2017-09-27T14:42:20.602Z,30.30
2017-09-27T14:44:48.847Z,31.40
2017-09-27T14:47:17.170Z,31.60
2017-09-27T14:49:45.418Z,30.90
2017-09-27T14:52:13.673Z,30.70
2017-09-27T14:54:41.953Z,31.50
2017-09-27T14:57:10.193Z,29.80
2017-09-27T14:59:38.441Z,31.20
2017-09-27T15:02:07.195Z,31.20
2017-09-27T15:04:35.434Z,29.80
2017-09-27T15:07:03.688Z,31.20
2017-09-27T15:09:32.922Z,31.70
2017-09-27T15:12:01.173Z,31.50
2017-09-27T15:14:29.426Z,33.00
2017-09-27T15:16:59.719Z,32.70
2017-09-27T15:19:28.006Z,32.60
2017-09-27T15:21:56.522Z,31.10
2017-09-27T15:24:24.814Z,31.80
2017-09-27T15:26:53.138Z,32.40
2017-09-27T15:29:21.401Z,32.50
2017-09-27T15:31:49.974Z,32.40
2017-09-27T15:34:18.235Z,33.40
2017-09-27T15:36:46.543Z,33.80
2017-09-27T15:39:14.813Z,34.10
2017-09-27T15:41:43.058Z,33.50
2017-09-27T15:44:11.507Z,34.00
2017-09-27T15:46:39.784Z,34.10
2017-09-27T15:49:08.030Z,34.30
2017-09-27T15:51:36.289Z,34.50
2017-09-27T15:54:04.734Z,34.90
2017-09-27T15:56:33.817Z,35.60
2017-09-27T15:59:02.826Z,36.70
2017-09-27T16:01:31.098Z,36.70
2017-09-27T16:04:00.575Z,37.30
2017-09-27T16:06:28.829Z,38.00
2017-09-27T16:08:57.098Z,38.80
2017-09-27T16:11:25.346Z,39.50
2017-09-27T16:13:53.608Z,39.80
2017-09-27T16:16:22.709Z,40.60
2017-09-27T16:18:50.957Z,40.60
2017-09-27T16:21:20.250Z,40.90
2017-09-27T16:23:48.521Z,41.70
2017-09-27T16:26:16.780Z,41.70
2017-09-27T16:28:45.029Z,42.10
2017-09-27T16:31:13.485Z,42.40
2017-09-27T16:33:42.513Z,42.80
2017-09-27T16:36:10.790Z,42.80
2017-09-27T16:38:39.141Z,43.30
2017-09-27T16:41:07.394Z,44.00
2017-09-27T16:43:35.654Z,44.50
2017-09-27T16:46:03.942Z,44.70
2017-09-27T16:48:32.208Z,44.70
2017-09-27T16:51:00.497Z,45.40
2017-09-27T16:53:28.775Z,45.40
2017-09-27T16:55:57.030Z,46.90
2017-09-27T16:58:25.297Z,47.50
2017-09-27T17:00:53.914Z,46.80
2017-09-27T17:03:22.167Z,47.20
2017-09-27T17:05:50.906Z,48.10
2017-09-27T17:08:19.284Z,48.00
2017-09-27T17:10:47.524Z,49.00
2017-09-27T17:13:15.778Z,48.60
2017-09-27T17:15:44.842Z,49.00
2017-09-27T17:18:13.174Z,49.70
2017-09-27T17:20:41.407Z,48.80
2017-09-27T17:23:10.065Z,49.10
2017-09-27T17:25:39.086Z,49.70
2017-09-27T17:28:07.350Z,49.60
2017-09-27T17:30:35.673Z,50.20
2017-09-27T17:33:04.052Z,51.40
2017-09-27T17:35:32.305Z,51.30
2017-09-27T17:38:00.607Z,50.90
2017-09-27T17:40:28.968Z,51.40
2017-09-27T17:42:57.214Z,50.80
2017-09-27T17:45:25.826Z,50.70
2017-09-27T17:47:54.094Z,51.30
2017-09-27T17:50:22.358Z,51.90
2017-09-27T17:52:51.046Z,51.50
2017-09-27T17:55:19.331Z,53.40
2017-09-27T17:57:47.585Z,52.60
2017-09-27T18:00:15.846Z,53.20
2017-09-27T18:02:44.866Z,53.00
2017-09-27T18:05:18.907Z,53.00
2017-09-27T18:07:53.236Z,52.90
2017-09-27T18:10:42.258Z,53.00
2017-09-27T18:13:25.381Z,55.20
2017-09-27T18:15:59.217Z,54.00
2017-09-27T18:18:35.069Z,54.70
2017-09-27T18:21:04.586Z,54.70
2017-09-27T18:23:32.844Z,56.80
2017-09-27T18:26:01.101Z,56.20
2017-09-27T18:28:29.366Z,57.10
2017-09-27T18:30:58.381Z,59.60
2017-09-27T18:33:26.636Z,59.60
2017-09-27T18:35:54.909Z,57.90
2017-09-27T18:38:23.930Z,58.10
2017-09-27T18:40:52.185Z,58.10
2017-09-27T18:43:21.531Z,58.70
2017-09-27T18:45:49.785Z,58.80
2017-09-27T18:48:18.039Z,58.00
2017-09-27T18:50:47.069Z,58.00
2017-09-27T18:53:15.329Z,58.00
2017-09-27T18:55:43.577Z,58.40
2017-09-27T18:58:11.879Z,60.10
2017-09-27T19:00:40.123Z,60.30
2017-09-27T19:03:09.146Z,61.30
2017-09-27T19:05:37.730Z,61.10
2017-09-27T19:08:06.107Z,59.50
2017-09-27T19:10:34.363Z,60.30
2017-09-27T19:13:02.730Z,64.10
2017-09-27T19:15:30.966Z,63.20
2017-09-27T19:17:59.215Z,59.90
2017-09-27T19:20:27.497Z,64.50
2017-09-27T19:22:55.762Z,61.80
2017-09-27T19:25:24.030Z,61.70
2017-09-27T19:27:52.656Z,60.80
2017-09-27T19:30:20.915Z,62.20
2017-09-27T19:32:49.166Z,63.60
2017-09-27T19:35:17.446Z,63.90
2017-09-27T19:37:46.464Z,65.70
2017-09-27T19:40:14.714Z,65.70
2017-09-27T19:42:43.763Z,64.60
2017-09-27T19:45:12.042Z,64.40
2017-09-27T19:47:40.293Z,63.60
2017-09-27T19:50:08.635Z,66.80
2017-09-27T19:52:38.826Z,66.00
2017-09-27T19:55:07.084Z,65.90
2017-09-27T19:57:35.349Z,67.50
2017-09-27T20:00:03.610Z,66.30
2017-09-27T20:02:31.857Z,64.80
2017-09-27T20:05:00.139Z,68.00
2017-09-27T20:07:29.161Z,68.00
2017-09-27T20:09:57.690Z,68.00
2017-09-27T20:12:26.076Z,67.20
2017-09-27T20:14:54.441Z,67.80
2017-09-27T20:17:22.677Z,69.30
2017-09-27T20:19:50.963Z,69.60
2017-09-27T20:22:19.205Z,69.40
2017-09-27T20:24:47.458Z,70.30
2017-09-27T20:27:15.729Z,68.30
2017-09-27T20:29:43.989Z,68.20
2017-09-27T20:32:12.274Z,67.50
2017-09-27T20:34:41.050Z,71.60
2017-09-27T20:37:10.233Z,69.50
2017-09-27T20:39:38.486Z,68.50
2017-09-27T20:42:06.761Z,69.80
2017-09-27T20:44:36.954Z,73.80
2017-09-27T20:47:05.254Z,73.70
2017-09-27T20:49:33.521Z,72.10
2017-09-27T20:52:02.542Z,69.00
2017-09-27T20:54:30.861Z,69.00
2017-09-27T20:56:59.534Z,70.70
2017-09-27T20:59:27.790Z,75.40
2017-09-27T21:01:56.044Z,72.50
2017-09-27T21:04:24.342Z,71.60
2017-09-27T21:06:52.594Z,70.80
2017-09-27T21:09:20.853Z,73.70
2017-09-27T21:11:49.481Z,71.40
2017-09-27T21:14:17.735Z,74.80
2017-09-27T21:16:46.004Z,73.00
2017-09-27T21:19:14.639Z,73.10
2017-09-27T21:21:42.890Z,73.50
2017-09-27T21:24:11.151Z,70.00
2017-09-27T21:26:39.431Z,72.00
2017-09-27T21:29:08.438Z,73.80
2017-09-27T21:31:36.695Z,73.90
2017-09-27T21:34:04.966Z,71.40
2017-09-27T21:36:33.977Z,74.50
2017-09-27T21:39:02.233Z,74.50
2017-09-27T21:41:31.324Z,71.90
2017-09-27T21:43:59.579Z,71.90
2017-09-27T21:46:27.830Z,71.60
2017-09-27T21:48:56.116Z,71.90
2017-09-27T21:51:24.362Z,72.40
2017-09-27T21:53:52.619Z,75.40
2017-09-27T21:56:20.890Z,75.50
2017-09-27T21:58:49.142Z,77.20
2017-09-27T22:01:17.389Z,77.30
2017-09-27T22:03:45.830Z,76.20
2017-09-27T22:06:14.085Z,76.80
2017-09-27T22:08:42.334Z,75.10
2017-09-27T22:11:10.625Z,75.40
2017-09-27T22:13:39.000Z,76.30
2017-09-27T22:16:07.258Z,76.90
2017-09-27T22:18:35.522Z,75.00
2017-09-27T22:21:03.778Z,73.50
2017-09-27T22:23:32.042Z,73.90
2017-09-27T22:26:00.570Z,77.50
2017-09-27T22:28:28.822Z,75.20
2017-09-27T22:30:57.079Z,75.00
2017-09-27T22:33:25.355Z,78.20
2017-09-27T22:35:54.369Z,76.50
2017-09-27T22:38:22.613Z,76.50
2017-09-27T22:40:50.966Z,76.90
2017-09-27T22:43:19.237Z,76.00
2017-09-27T22:45:47.461Z,74.50
2017-09-27T22:48:16.265Z,77.60
2017-09-27T22:50:44.513Z,76.40
2017-09-27T22:53:13.529Z,75.20
2017-09-27T22:55:41.805Z,75.20
2017-09-27T22:58:10.060Z,75.50
2017-09-27T23:00:39.082Z,77.60
2017-09-27T23:03:07.357Z,77.60
2017-09-27T23:05:35.616Z,76.00
2017-09-27T23:08:03.865Z,74.80
2017-09-27T23:10:32.304Z,77.60
2017-09-27T23:13:00.553Z,76.90
2017-09-27T23:15:29.112Z,75.50
2017-09-27T23:17:57.386Z,75.70
2017-09-27T23:20:25.641Z,75.40
2017-09-27T23:22:53.881Z,76.40
2017-09-27T23:25:22.158Z,78.10
2017-09-27T23:27:50.410Z,76.00
2017-09-27T23:30:19.426Z,77.60
2017-09-27T23:32:48.029Z,77.80
2017-09-27T23:35:16.290Z,79.30
2017-09-27T23:37:44.545Z,78.80
2017-09-27T23:40:12.821Z,78.30
2017-09-27T23:42:41.834Z,77.10
2017-09-27T23:45:10.094Z,77.10
2017-09-27T23:47:38.369Z,79.30
2017-09-27T23:50:06.621Z,82.80
2017-09-27T23:52:34.877Z,81.80
2017-09-27T23:55:03.318Z,82.60
2017-09-27T23:57:31.562Z,80.30
2017-09-27T23:59:59.821Z,82.80
